Terminal Aerodrome Forecast
Issued by NWS Lake Charles, LA

Home | Current Version | Previous Version | Text Only | Print | Product List | Glossary On
Versions: 1 2 3 4 5 6 7 8 9 10 11 12 13 14 15 16 17 18 19
000
FTUS44 KLCH 262340
TAFAEX
TAF
KAEX 262340Z 2700/2724 14006KT P6SM SCT050 SCT250
     FM270800 04010KT P6SM VCSH BKN025 OVC035
      TEMPO 2710/2714 4SM -SHRA OVC025
     FM271400 08014G22KT 6SM SHRA VCTS OVC025CB
      TEMPO 2714/2718 VRB25G40KT 1/2SM +TSRA OVC005CB
     FM271800 06015G25KT 2SM +TSRA BR BKN007 OVC020CB
     FM272100 07016G25KT P6SM VCTS SCT007 OVC020CB=

USA.gov is the U.S. government's official web portal to all federal, state and local government web resources and services.